Time;durP1;ratioP1;P1;durP2;ratioP2;P2;SDS_P1;SDS_P2;PMS_P1;PMS_P2;Temp;Humidity;BMP_temperature;BMP_pressure;BME280_temperature;BME280_humidity;BME280_pressure;Samples;Min_cycle;Max_cycle;Signal;HPM_P1;HPM_P2
2022/11/29 00:01:25;;;;;;;6.00;3.78;;;3.90;89.10;;;;;;5029038;28;20034;-58
2022/11/29 00:03:51;;;;;;;4.82;3.95;;;3.90;89.10;;;;;;5033226;28;20472;-57
2022/11/29 00:06:22;;;;;;;4.57;3.67;;;3.90;89.40;;;;;;5031001;28;20078;-57
2022/11/29 00:08:48;;;;;;;5.88;4.28;;;3.90;89.70;;;;;;5029512;28;20432;-58
2022/11/29 00:14:13;;;;;;;5.30;3.38;;;4.10;89.70;;;;;;5025974;28;20087;-58
2022/11/29 00:16:39;;;;;;;5.75;3.90;;;4.10;89.40;;;;;;5029470;28;20120;-58
2022/11/29 00:19:06;;;;;;;5.20;3.80;;;4.20;89.00;;;;;;5029918;28;20033;-58
2022/11/29 00:21:31;;;;;;;5.22;4.03;;;4.20;88.50;;;;;;5025675;28;20148;-58
2022/11/29 00:23:57;;;;;;;4.40;3.35;;;4.20;88.10;;;;;;5027664;28;20108;-58
2022/11/29 00:26:23;;;;;;;5.85;3.92;;;4.20;87.90;;;;;;5030667;28;20526;-58
2022/11/29 00:28:49;;;;;;;5.40;4.43;;;4.20;87.80;;;;;;5032373;28;20036;-58
2022/11/29 00:31:21;;;;;;;5.35;4.00;;;4.10;87.20;;;;;;5031447;28;20068;-58
2022/11/29 00:33:48;;;;;;;4.93;3.55;;;4.10;87.60;;;;;;5031006;28;20162;-57
2022/11/29 00:36:13;;;;;;;4.43;3.20;;;4.10;87.90;;;;;;5031238;28;20072;-57
2022/11/29 00:38:52;;;;;;;4.15;3.42;;;4.10;88.10;;;;;;5030645;28;20503;-57
2022/11/29 00:41:18;;;;;;;3.47;3.03;;;4.10;87.20;;;;;;5032964;28;20025;-57
2022/11/29 00:43:44;;;;;;;3.58;3.25;;;4.10;87.10;;;;;;5031740;28;20065;-58
2022/11/29 00:46:10;;;;;;;3.83;3.20;;;4.10;87.00;;;;;;5030962;28;20064;-57
2022/11/29 00:48:36;;;;;;;3.42;3.13;;;4.00;87.40;;;;;;5030879;28;20389;-57
2022/11/29 00:51:02;;;;;;;4.13;3.33;;;4.00;87.30;;;;;;5026539;28;20036;-58
2022/11/29 00:53:28;;;;;;;4.30;3.15;;;4.00;87.50;;;;;;5024741;28;20026;-57
2022/11/29 00:55:54;;;;;;;4.82;3.95;;;4.00;87.60;;;;;;5030433;28;20500;-57
2022/11/29 00:58:20;;;;;;;5.47;4.22;;;4.00;87.10;;;;;;5029588;28;20350;-59
2022/11/29 01:00:46;;;;;;;3.22;2.92;;;4.00;86.90;;;;;;5032332;28;20017;-58
2022/11/29 01:03:12;;;;;;;3.50;3.20;;;4.00;87.40;;;;;;5032001;28;20029;-58
2022/11/29 01:05:38;;;;;;;4.07;3.42;;;4.00;87.70;;;;;;5031287;28;20025;-59
2022/11/29 01:08:03;;;;;;;3.63;3.25;;;4.00;87.70;;;;;;5030159;28;20030;-57
2022/11/29 01:10:29;;;;;;;3.72;3.20;;;4.00;87.50;;;;;;5029926;28;20401;-58
2022/11/29 01:12:55;;;;;;;4.03;3.63;;;4.00;87.30;;;;;;5031833;28;20026;-58
2022/11/29 01:15:21;;;;;;;5.90;3.47;;;4.10;87.60;;;;;;5030023;28;20013;-58
2022/11/29 01:17:48;;;;;;;5.88;4.05;;;4.10;87.20;;;;;;5031408;28;20055;-57
2022/11/29 01:20:14;;;;;;;5.03;3.95;;;4.10;86.70;;;;;;5031558;28;20025;-58
2022/11/29 01:22:40;;;;;;;4.10;3.58;;;4.00;86.50;;;;;;5031917;28;20032;-57
2022/11/29 01:25:06;;;;;;;6.53;4.63;;;4.00;86.90;;;;;;5029987;28;20079;-58
2022/11/29 01:27:33;;;;;;;4.65;3.83;;;4.00;86.70;;;;;;5031004;28;20551;-57
2022/11/29 01:29:59;;;;;;;5.72;3.97;;;3.90;86.50;;;;;;5031456;28;20032;-57
2022/11/29 01:32:24;;;;;;;8.13;4.63;;;3.90;86.90;;;;;;5031588;28;20038;-56
2022/11/29 01:34:50;;;;;;;6.35;5.22;;;3.90;87.00;;;;;;5031469;28;20473;-58
2022/11/29 01:37:16;;;;;;;5.63;4.32;;;3.80;86.80;;;;;;5023091;28;20053;-58
2022/11/29 01:39:41;;;;;;;5.65;4.25;;;3.80;87.00;;;;;;5029394;28;20101;-58
2022/11/29 01:42:10;;;;;;;4.85;3.92;;;3.70;87.10;;;;;;5027899;28;20033;-58
2022/11/29 01:44:36;;;;;;;4.97;4.35;;;3.70;87.50;;;;;;5031366;28;20033;-57
2022/11/29 01:47:02;;;;;;;5.65;4.65;;;3.70;87.70;;;;;;5030923;28;20032;-56
2022/11/29 01:49:31;;;;;;;4.97;4.18;;;3.80;87.30;;;;;;5029031;28;20029;-58
2022/11/29 01:51:59;;;;;;;4.82;4.10;;;3.70;87.20;;;;;;5031162;28;20369;-58
2022/11/29 01:54:25;;;;;;;4.85;3.85;;;3.70;87.20;;;;;;5031561;28;20412;-58
2022/11/29 01:56:52;;;;;;;5.47;4.13;;;3.70;87.80;;;;;;5033387;28;20501;-58
2022/11/29 01:59:22;;;;;;;5.38;4.30;;;3.70;87.70;;;;;;5026543;28;20108;-58
2022/11/29 02:01:47;;;;;;;5.43;4.10;;;3.70;87.80;;;;;;5031136;28;20167;-58
2022/11/29 02:04:15;;;;;;;7.15;5.07;;;3.70;88.00;;;;;;5030932;28;20120;-57
2022/11/29 02:06:42;;;;;;;5.05;4.03;;;3.70;88.00;;;;;;5032399;28;20056;-58
2022/11/29 02:09:19;;;;;;;8.18;5.55;;;3.80;87.90;;;;;;5034243;28;20488;-57
2022/11/29 02:12:19;;;;;;;6.07;4.90;;;3.80;87.50;;;;;;5034755;28;20380;-58
2022/11/29 02:15:04;;;;;;;5.65;4.68;;;3.80;87.10;;;;;;5000352;28;20038;-58
2022/11/29 02:17:50;;;;;;;7.70;4.53;;;3.70;87.30;;;;;;5030122;28;20037;-57
2022/11/29 02:20:55;;;;;;;6.10;4.57;;;3.70;87.40;;;;;;5004038;28;20504;-57
2022/11/29 02:23:56;;;;;;;6.38;5.13;;;3.70;87.10;;;;;;5034127;28;20095;-57
2022/11/29 02:26:27;;;;;;;5.30;4.37;;;3.70;87.20;;;;;;5031262;28;20045;-58
2022/11/29 02:29:02;;;;;;;5.53;4.88;;;3.70;87.60;;;;;;5031084;28;20025;-58
2022/11/29 02:31:43;;;;;;;7.25;5.05;;;3.80;87.60;;;;;;5031206;28;20022;-56
2022/11/29 02:34:46;;;;;;;5.47;4.75;;;3.80;87.00;;;;;;5034870;28;20029;-58
2022/11/29 02:37:36;;;;;;;6.95;4.95;;;3.80;87.00;;;;;;5032318;28;20037;-58
2022/11/29 02:40:30;;;;;;;6.45;4.95;;;3.80;87.20;;;;;;5032707;28;20037;-58
2022/11/29 02:42:55;;;;;;;7.20;4.93;;;3.80;87.30;;;;;;5034201;28;20035;-58
2022/11/29 02:45:30;;;;;;;6.20;4.90;;;3.80;87.20;;;;;;5034882;28;20033;-58
2022/11/29 02:48:14;;;;;;;7.07;5.43;;;3.90;87.20;;;;;;5033456;28;20052;-57
2022/11/29 02:50:46;;;;;;;7.43;5.63;;;3.90;86.90;;;;;;5023593;28;20484;-57
2022/11/29 02:53:17;;;;;;;6.72;5.28;;;3.90;86.50;;;;;;5033295;28;20111;-58
2022/11/29 02:56:09;;;;;;;7.93;5.30;;;3.80;86.40;;;;;;5033965;28;20037;-58
2022/11/29 02:58:50;;;;;;;5.65;5.03;;;3.80;86.40;;;;;;5033498;28;20112;-57
2022/11/29 03:01:27;;;;;;;6.00;4.35;;;3.80;86.50;;;;;;5034849;28;20029;-58
2022/11/29 03:04:16;;;;;;;6.95;4.80;;;3.90;86.70;;;;;;5034282;28;20029;-56
2022/11/29 03:06:54;;;;;;;6.30;4.97;;;3.90;86.30;;;;;;5035772;28;20542;-58
2022/11/29 03:09:41;;;;;;;7.32;5.18;;;3.90;86.30;;;;;;5033277;28;20354;-57
2022/11/29 03:12:28;;;;;;;8.15;6.10;;;3.90;86.00;;;;;;5035546;28;20049;-58
2022/11/29 03:15:00;;;;;;;7.95;5.90;;;3.80;85.90;;;;;;5035981;28;20466;-57
2022/11/29 03:17:47;;;;;;;6.82;5.38;;;3.70;85.90;;;;;;5034964;28;20554;-58
2022/11/29 03:20:57;;;;;;;7.50;6.05;;;3.70;86.00;;;;;;5031832;28;20064;-59
2022/11/29 03:23:31;;;;;;;7.28;6.10;;;3.70;86.50;;;;;;5031290;28;20045;-57
2022/11/29 03:26:19;;;;;;;7.05;5.35;;;3.70;86.70;;;;;;5035473;28;20469;-56
2022/11/29 03:29:07;;;;;;;6.70;5.30;;;3.70;86.70;;;;;;5022423;28;20091;-57
2022/11/29 03:31:37;;;;;;;7.95;5.53;;;3.70;86.80;;;;;;5033420;28;20404;-58
2022/11/29 03:34:27;;;;;;;7.15;5.63;;;3.80;86.70;;;;;;5035044;28;20025;-58
2022/11/29 03:37:13;;;;;;;7.25;5.25;;;3.80;86.20;;;;;;5034333;28;20408;-58
2022/11/29 03:40:03;;;;;;;8.27;6.22;;;3.80;86.10;;;;;;5032909;28;20440;-57
2022/11/29 03:43:01;;;;;;;8.25;5.72;;;3.80;85.70;;;;;;5017925;28;20040;-58
2022/11/29 03:45:35;;;;;;;8.18;5.80;;;3.80;85.70;;;;;;5032412;28;20053;-58
2022/11/29 03:48:08;;;;;;;9.95;6.47;;;3.80;85.70;;;;;;5027546;28;20068;-56
2022/11/29 03:50:40;;;;;;;7.55;5.20;;;3.80;86.00;;;;;;5033833;28;20025;-58
2022/11/29 03:53:08;;;;;;;7.05;5.10;;;3.80;86.00;;;;;;5033957;28;20079;-57
2022/11/29 03:56:31;;;;;;;5.93;4.72;;;3.80;85.90;;;;;;5034883;28;20033;-58
2022/11/29 03:59:03;;;;;;;7.45;4.93;;;3.90;85.80;;;;;;4954392;28;20042;-58
2022/11/29 04:02:16;;;;;;;9.10;6.63;;;3.90;85.70;;;;;;4952200;28;20082;-58
2022/11/29 04:05:27;;;;;;;7.78;6.13;;;3.90;85.00;;;;;;5029248;28;20033;-56
2022/11/29 04:08:19;;;;;;;7.57;5.82;;;3.90;84.60;;;;;;5012249;28;20041;-57
2022/11/29 04:10:57;;;;;;;;;;;3.90;85.20;;;;;;5031126;28;20084;-56
2022/11/29 04:14:00;;;;;;;9.23;5.25;;;3.80;85.20;;;;;;5033632;28;19909;-58
2022/11/29 04:16:39;;;;;;;6.88;5.53;;;3.90;85.50;;;;;;5031177;28;20040;-58
2022/11/29 04:19:39;;;;;;;6.85;5.38;;;4.00;85.50;;;;;;5033566;28;20708;-58
2022/11/29 04:22:52;;;;;;;7.32;5.53;;;4.00;85.20;;;;;;5024785;28;20018;-56
2022/11/29 04:25:53;;;;;;;7.15;5.78;;;4.00;85.00;;;;;;5020474;28;20041;-58
2022/11/29 04:28:41;;;;;;;7.40;6.00;;;4.00;84.90;;;;;;5032014;28;20079;-58
2022/11/29 04:31:21;;;;;;;9.52;5.80;;;4.00;84.40;;;;;;5033440;28;20024;-58
2022/11/29 04:34:12;;;;;;;6.38;4.95;;;4.00;84.20;;;;;;5034177;28;20408;-58
2022/11/29 04:37:08;;;;;;;6.90;5.05;;;3.90;84.30;;;;;;5034855;28;20048;-58
2022/11/29 04:39:52;;;;;;;8.60;5.90;;;3.90;84.60;;;;;;5031234;28;20029;-57
2022/11/29 04:42:29;;;;;;;7.03;4.95;;;4.00;84.70;;;;;;5028505;28;20030;-58
2022/11/29 04:45:22;;;;;;;8.45;6.38;;;4.00;84.90;;;;;;5033102;28;20026;-59
2022/11/29 04:48:07;;;;;;;7.47;5.43;;;4.00;84.40;;;;;;5031509;28;20033;-57
2022/11/29 04:50:42;;;;;;;8.07;6.25;;;4.00;84.10;;;;;;5029086;28;20091;-58
2022/11/29 04:53:13;;;;;;;8.55;5.55;;;3.90;84.30;;;;;;5030479;28;20409;-58
2022/11/29 04:55:53;;;;;;;6.00;5.03;;;4.00;84.40;;;;;;5033759;28;20022;-58
2022/11/29 04:58:35;;;;;;;6.47;5.00;;;4.00;84.30;;;;;;5032616;28;20029;-58
2022/11/29 05:01:06;;;;;;;8.35;5.28;;;4.00;84.80;;;;;;5032502;28;20065;-58
2022/11/29 05:04:09;;;;;;;6.50;4.82;;;4.00;84.00;;;;;;5030710;28;20492;-59
2022/11/29 05:06:56;;;;;;;5.85;4.78;;;4.00;83.70;;;;;;5029984;28;20489;-56
2022/11/29 05:09:58;;;;;;;7.72;5.50;;;4.00;83.60;;;;;;5028792;28;20054;-57
2022/11/29 05:12:40;;;;;;;8.85;6.25;;;3.90;83.40;;;;;;5030880;28;20029;-58
2022/11/29 05:15:52;;;;;;;6.53;4.60;;;3.80;83.60;;;;;;5032636;28;20028;-56
2022/11/29 05:18:47;;;;;;;5.97;4.97;;;3.80;83.90;;;;;;5029244;28;20021;-58
2022/11/29 05:21:27;;;;;;;5.20;4.13;;;3.70;83.90;;;;;;5029379;28;20021;-58
2022/11/29 05:24:15;;;;;;;7.22;5.35;;;3.70;84.10;;;;;;5033599;28;20017;-57
2022/11/29 05:27:16;;;;;;;6.97;4.68;;;3.70;83.80;;;;;;5029614;28;20057;-57
2022/11/29 05:30:05;;;;;;;5.82;4.75;;;3.70;83.90;;;;;;5031315;28;20427;-56
2022/11/29 05:32:41;;;;;;;5.65;4.68;;;3.70;84.10;;;;;;5032016;28;20017;-58
2022/11/29 05:35:31;;;;;;;6.25;4.88;;;3.70;84.30;;;;;;5027286;28;20044;-58
2022/11/29 05:38:34;;;;;;;7.53;4.80;;;3.80;84.10;;;;;;4993945;28;20038;-58
2022/11/29 05:41:11;;;;;;;6.32;5.60;;;3.80;83.90;;;;;;4991456;28;20086;-56
2022/11/29 05:44:16;;;;;;;6.25;5.10;;;3.70;83.70;;;;;;4991754;28;20058;-58
2022/11/29 05:46:53;;;;;;;6.22;4.78;;;3.70;83.70;;;;;;4973643;28;20049;-56
2022/11/29 05:49:49;;;;;;;5.93;4.82;;;3.70;84.10;;;;;;4993102;28;20033;-57
2022/11/29 05:52:52;;;;;;;6.25;4.78;;;3.70;84.10;;;;;;4989843;28;20447;-58
2022/11/29 05:55:38;;;;;;;6.80;4.60;;;3.70;83.90;;;;;;4991131;28;20109;-57
2022/11/29 05:58:26;;;;;;;6.05;4.88;;;3.70;83.90;;;;;;4990719;28;20081;-58
2022/11/29 06:01:18;;;;;;;6.55;4.88;;;3.70;83.90;;;;;;4990716;28;20053;-58
2022/11/29 06:04:12;;;;;;;7.80;4.60;;;3.80;84.20;;;;;;4989937;28;20065;-57
2022/11/29 06:07:02;;;;;;;7.53;5.00;;;3.80;84.20;;;;;;4980472;28;20180;-58
2022/11/29 06:09:34;;;;;;;6.15;4.82;;;3.80;83.90;;;;;;4988290;28;20031;-56
2022/11/29 06:12:13;;;;;;;5.85;4.75;;;3.80;83.70;;;;;;4990278;28;20393;-57
2022/11/29 06:14:51;;;;;;;5.68;4.50;;;3.90;83.80;;;;;;4990458;28;20031;-58
2022/11/29 06:17:51;;;;;;;6.68;4.28;;;3.80;83.60;;;;;;4991508;28;20490;-57
2022/11/29 06:20:38;;;;;;;6.47;4.70;;;3.80;83.50;;;;;;4987310;28;20034;-58
2022/11/29 06:23:30;;;;;;;4.82;4.05;;;3.80;83.60;;;;;;4986342;28;20030;-57
2022/11/29 06:26:11;;;;;;;7.13;4.78;;;3.80;83.90;;;;;;4985979;28;20120;-58
2022/11/29 06:29:00;;;;;;;8.50;4.97;;;3.90;83.70;;;;;;4989827;28;20386;-56
2022/11/29 06:31:43;;;;;;;6.72;4.50;;;3.90;83.40;;;;;;4990022;28;20494;-58
2022/11/29 06:34:44;;;;;;;6.25;4.50;;;3.90;83.50;;;;;;4995358;28;20034;-56
2022/11/29 06:37:20;;;;;;;6.88;4.75;;;3.80;83.30;;;;;;5003494;28;20053;-57
2022/11/29 06:39:46;;;;;;;5.68;4.13;;;3.80;83.40;;;;;;5012904;28;20053;-56
2022/11/29 06:42:12;;;;;;;7.47;5.20;;;3.80;83.70;;;;;;5009339;28;20034;-58
2022/11/29 06:44:41;;;;;;;6.18;4.65;;;3.80;83.80;;;;;;5006670;28;20036;-57
2022/11/29 06:47:22;;;;;;;7.65;4.65;;;3.80;83.70;;;;;;5005931;28;20029;-57
2022/11/29 06:50:09;;;;;;;5.40;3.97;;;3.80;83.80;;;;;;5007538;28;20320;-58
2022/11/29 06:53:18;;;;;;;5.72;4.20;;;3.80;83.80;;;;;;5013457;28;20036;-58
2022/11/29 06:56:00;;;;;;;6.22;4.57;;;3.90;83.60;;;;;;5012778;28;20018;-56
2022/11/29 06:58:44;;;;;;;;;;;3.90;83.60;;;;;;5015879;28;20030;-58
2022/11/29 07:01:40;;;;;;;7.05;4.80;;;3.90;83.40;;;;;;5004907;28;19948;-57
2022/11/29 07:04:31;;;;;;;6.28;4.45;;;3.90;83.30;;;;;;5007445;28;20040;-58
2022/11/29 07:06:57;;;;;;;5.95;4.63;;;3.90;83.40;;;;;;5010848;28;20026;-57
2022/11/29 07:09:27;;;;;;;6.63;4.60;;;3.80;83.70;;;;;;5011758;28;20041;-58
2022/11/29 07:11:53;;;;;;;7.90;4.85;;;3.80;83.80;;;;;;5007296;28;20030;-58
2022/11/29 07:14:19;;;;;;;6.38;4.90;;;3.90;84.10;;;;;;5003620;28;20064;-57
2022/11/29 07:17:17;;;;;;;6.57;4.47;;;3.90;84.00;;;;;;5004994;28;20045;-59
2022/11/29 07:20:23;;;;;;;6.13;4.57;;;4.00;83.70;;;;;;5009297;28;20066;-56
2022/11/29 07:23:05;;;;;;;6.00;4.80;;;4.00;83.40;;;;;;5006390;28;20034;-58
2022/11/29 07:25:57;;;;;;;6.50;4.28;;;4.00;83.20;;;;;;5003537;28;20105;-58
2022/11/29 07:28:45;;;;;;;;;;;3.90;83.20;;;;;;5002659;28;20045;-57
2022/11/29 07:31:35;;;;;;;5.90;4.43;;;3.80;83.00;;;;;;5001360;28;19927;-57
2022/11/29 07:34:45;;;;;;;7.50;5.18;;;3.80;83.60;;;;;;5001454;28;20034;-57
2022/11/29 07:38:06;;;;;;;5.97;4.55;;;3.80;83.60;;;;;;4987089;28;20061;-56
2022/11/29 07:41:25;;;;;;;6.03;4.72;;;3.70;83.80;;;;;;4999532;28;20134;-57
2022/11/29 07:44:09;;;;;;;7.00;4.95;;;3.70;84.10;;;;;;5004014;28;20038;-57
2022/11/29 07:46:35;;;;;;;6.05;4.60;;;3.80;84.30;;;;;;5004057;28;20560;-57
2022/11/29 07:49:01;;;;;;;8.30;5.03;;;3.80;84.50;;;;;;5003762;28;20018;-57
2022/11/29 07:51:27;;;;;;;6.80;5.00;;;3.80;84.20;;;;;;4998779;28;20034;-57
2022/11/29 07:53:53;;;;;;;6.50;4.93;;;3.80;84.10;;;;;;5000625;28;20029;-58
2022/11/29 07:56:19;;;;;;;5.85;4.28;;;3.80;84.80;;;;;;5007718;28;20042;-58
2022/11/29 07:58:45;;;;;;;7.05;4.93;;;3.70;84.10;;;;;;4991025;28;20032;-58
2022/11/29 08:01:11;;;;;;;5.93;4.28;;;3.70;84.20;;;;;;4997175;28;20046;-58
2022/11/29 08:03:37;;;;;;;5.13;4.30;;;3.70;84.10;;;;;;4987658;28;20033;-56
2022/11/29 08:06:06;;;;;;;5.55;4.38;;;3.70;84.10;;;;;;4993476;28;20038;-58
2022/11/29 08:08:32;;;;;;;5.03;4.38;;;3.60;84.30;;;;;;4997048;28;20108;-59
2022/11/29 08:10:58;;;;;;;5.35;3.95;;;3.60;84.90;;;;;;4991199;28;20049;-57
2022/11/29 08:13:23;;;;;;;5.65;4.03;;;3.60;85.20;;;;;;4993803;28;20030;-57
2022/11/29 08:15:49;;;;;;;4.80;3.90;;;3.60;85.20;;;;;;4998139;28;20373;-57
2022/11/29 08:18:15;;;;;;;5.18;3.97;;;3.60;85.50;;;;;;4999104;28;20026;-58
2022/11/29 08:20:42;;;;;;;5.55;4.28;;;3.70;85.50;;;;;;4991330;28;20164;-58
2022/11/29 08:23:11;;;;;;;5.70;4.25;;;3.80;85.50;;;;;;4991471;28;20469;-59
2022/11/29 08:25:37;;;;;;;4.65;3.90;;;3.80;85.50;;;;;;4988527;28;20037;-60
2022/11/29 08:28:04;;;;;;;6.70;4.07;;;3.90;85.50;;;;;;4979648;28;20034;-57
2022/11/29 08:30:30;;;;;;;4.97;4.03;;;4.00;85.20;;;;;;4990136;28;20029;-58
2022/11/29 08:32:56;;;;;;;9.43;4.40;;;4.10;85.00;;;;;;4992930;28;20037;-59
2022/11/29 08:35:25;;;;;;;6.47;4.55;;;4.10;84.40;;;;;;4988912;28;20030;-59
2022/11/29 08:37:52;;;;;;;7.40;5.30;;;4.10;84.50;;;;;;5012569;28;20048;-58
2022/11/29 08:40:19;;;;;;;6.53;4.22;;;4.10;84.20;;;;;;5010646;28;20052;-59
2022/11/29 08:42:44;;;;;;;6.63;4.40;;;4.10;84.20;;;;;;5018278;28;20040;-57
2022/11/29 08:45:11;;;;;;;5.63;3.97;;;4.00;84.00;;;;;;5020877;28;20033;-57
2022/11/29 08:47:37;;;;;;;8.07;4.78;;;4.00;84.30;;;;;;5022468;28;20266;-58
2022/11/29 08:50:03;;;;;;;7.05;5.18;;;4.00;84.50;;;;;;5018130;28;20033;-57
2022/11/29 08:55:24;;;;;;;5.75;4.47;;;3.90;84.10;;;;;;5008307;28;20043;-59
2022/11/29 08:57:59;;;;;;;6.05;4.60;;;3.80;84.00;;;;;;4991199;28;20687;-58
2022/11/29 09:00:25;;;;;;;6.60;4.50;;;3.80;85.10;;;;;;4994776;28;20026;-59
2022/11/29 09:02:52;;;;;;;7.15;4.32;;;3.70;84.60;;;;;;5000871;28;20064;-58
2022/11/29 09:05:18;;;;;;;5.85;4.30;;;3.60;84.80;;;;;;4998042;28;20031;-57
2022/11/29 09:07:45;;;;;;;7.68;4.25;;;3.60;85.00;;;;;;4991201;28;20033;-58
2022/11/29 09:10:11;;;;;;;6.05;4.10;;;3.60;85.50;;;;;;4987298;28;20030;-58
2022/11/29 09:12:38;;;;;;;5.68;4.47;;;3.70;86.00;;;;;;4999773;28;20110;-59
2022/11/29 09:15:08;;;;;;;5.57;4.40;;;3.80;85.80;;;;;;4996681;28;20037;-58
2022/11/29 09:17:34;;;;;;;5.35;4.00;;;3.80;85.60;;;;;;5006772;28;20136;-57
2022/11/29 09:20:00;;;;;;;4.75;3.70;;;3.90;86.30;;;;;;5007776;28;20030;-58
2022/11/29 09:22:28;;;;;;;4.38;3.35;;;4.00;85.40;;;;;;5011537;28;20038;-58
2022/11/29 09:25:03;;;;;;;5.13;4.25;;;4.00;85.30;;;;;;5005261;28;20121;-57
2022/11/29 09:27:30;;;;;;;5.78;4.25;;;4.10;84.80;;;;;;5001102;28;20072;-57
2022/11/29 09:29:59;;;;;;;5.72;3.83;;;4.10;84.50;;;;;;5005346;28;20021;-56
2022/11/29 09:32:24;;;;;;;5.05;3.78;;;4.10;84.60;;;;;;5002214;28;20108;-58
2022/11/29 09:34:50;;;;;;;4.18;3.50;;;4.20;84.60;;;;;;4989268;28;20830;-57
2022/11/29 09:37:16;;;;;;;5.25;3.80;;;4.20;84.60;;;;;;4997397;28;20045;-58
2022/11/29 09:39:42;;;;;;;5.68;3.65;;;4.20;84.30;;;;;;5004716;28;20029;-59
2022/11/29 09:42:46;;;;;;;3.65;3.28;;;4.20;83.90;;;;;;5001285;28;20155;-59
2022/11/29 09:45:24;;;;;;;5.20;3.85;;;4.20;83.50;;;;;;5008834;28;20041;-59
2022/11/29 09:47:50;;;;;;;4.97;3.80;;;4.20;83.70;;;;;;5002328;28;20096;-59
2022/11/29 09:50:33;;;;;;;5.38;3.78;;;4.20;83.90;;;;;;5001731;28;20025;-59
2022/11/29 09:53:18;;;;;;;5.18;3.80;;;4.20;83.90;;;;;;4997714;28;20026;-57
2022/11/29 09:56:22;;;;;;;4.38;3.20;;;4.30;84.00;;;;;;4990430;28;20095;-58
2022/11/29 09:58:51;;;;;;;4.28;3.40;;;4.30;83.90;;;;;;4975269;28;20068;-55
2022/11/29 10:01:23;;;;;;;4.15;3.35;;;4.30;83.90;;;;;;5000095;28;20164;-57
2022/11/29 10:03:52;;;;;;;4.28;3.70;;;4.30;83.60;;;;;;4995883;28;20030;-57
2022/11/29 10:06:35;;;;;;;5.30;3.38;;;4.30;83.70;;;;;;5001232;28;20036;-57
2022/11/29 10:09:11;;;;;;;4.05;3.30;;;4.30;83.50;;;;;;4994709;28;20025;-58
2022/11/29 10:11:46;;;;;;;4.43;3.65;;;4.30;83.50;;;;;;4999530;28;20107;-58
2022/11/29 10:14:31;;;;;;;4.53;3.80;;;4.40;83.60;;;;;;4997506;28;20841;-58
2022/11/29 10:17:09;;;;;;;5.40;4.22;;;4.40;83.60;;;;;;4995953;28;20034;-58
2022/11/29 10:19:43;;;;;;;3.85;3.40;;;4.40;84.30;;;;;;4991193;28;20032;-58
2022/11/29 10:22:08;;;;;;;4.00;3.10;;;4.40;83.50;;;;;;4996110;28;20198;-59
2022/11/29 10:24:36;;;;;;;5.07;3.58;;;4.40;83.60;;;;;;4991385;28;21401;-59
2022/11/29 10:27:16;;;;;;;5.30;3.72;;;4.50;83.70;;;;;;4979413;28;20030;-59
2022/11/29 10:29:42;;;;;;;4.65;3.28;;;4.50;83.70;;;;;;5000264;28;20117;-58
2022/11/29 10:32:14;;;;;;;4.78;3.50;;;4.50;83.40;;;;;;4997593;28;20926;-60
2022/11/29 10:34:42;;;;;;;4.18;3.50;;;4.50;83.40;;;;;;5002601;28;20571;-59
2022/11/29 10:37:12;;;;;;;4.93;3.55;;;4.50;83.40;;;;;;4998530;28;20064;-56
2022/11/29 10:39:43;;;;;;;3.90;3.60;;;4.50;83.90;;;;;;4995242;28;20033;-58
2022/11/29 10:45:00;;;;;;;4.38;3.10;;;4.50;83.20;;;;;;5002774;28;20091;-58
2022/11/29 10:47:26;;;;;;;5.03;3.50;;;4.50;83.10;;;;;;4998517;28;20033;-58
2022/11/29 10:49:52;;;;;;;5.18;3.13;;;4.50;83.10;;;;;;5000271;28;20053;-56
2022/11/29 10:52:20;;;;;;;4.53;3.30;;;4.50;83.30;;;;;;5002346;28;20044;-57
2022/11/29 10:54:47;;;;;;;5.70;3.60;;;4.50;83.10;;;;;;4993880;28;20029;-58
2022/11/29 10:57:21;;;;;;;5.22;3.83;;;4.50;83.10;;;;;;5002320;28;20220;-55
2022/11/29 11:00:08;;;;;;;5.50;3.78;;;4.60;83.00;;;;;;4997715;28;20017;-58
2022/11/29 11:02:35;;;;;;;4.13;3.30;;;4.60;83.10;;;;;;4990660;28;20038;-58
2022/11/29 11:05:02;;;;;;;5.90;4.22;;;4.50;83.10;;;;;;4995512;28;20064;-58
2022/11/29 11:07:37;;;;;;;4.93;3.50;;;4.60;83.10;;;;;;4995396;28;20744;-58
2022/11/29 11:10:16;;;;;;;4.22;3.45;;;4.60;82.90;;;;;;5002362;28;20532;-58
2022/11/29 11:13:03;;;;;;;5.57;3.97;;;4.60;82.90;;;;;;5001577;28;20469;-58
2022/11/29 11:15:30;;;;;;;4.22;3.83;;;4.60;82.70;;;;;;4997714;28;20183;-58
2022/11/29 11:18:05;;;;;;;5.22;4.00;;;4.60;82.70;;;;;;5000394;28;20065;-57
2022/11/29 11:20:35;;;;;;;5.50;3.90;;;4.60;82.50;;;;;;4999301;28;20033;-58
2022/11/29 11:23:02;;;;;;;5.35;4.20;;;4.60;82.40;;;;;;4999961;28;20069;-57
2022/11/29 11:25:28;;;;;;;4.70;3.78;;;4.60;82.20;;;;;;4994744;28;20111;-57
2022/11/29 11:27:55;;;;;;;5.00;4.15;;;4.60;82.20;;;;;;4999005;28;20038;-57
2022/11/29 11:30:23;;;;;;;6.68;4.00;;;4.50;82.30;;;;;;5005783;28;20068;-56
2022/11/29 11:33:15;;;;;;;5.65;4.00;;;4.60;83.00;;;;;;5010564;28;20057;-57
2022/11/29 11:35:40;;;;;;;;;;;4.60;82.30;;;;;;5009591;28;20038;-57
2022/11/29 11:38:15;;;;;;;5.00;3.70;;;4.50;82.00;;;;;;5006854;28;19970;-58
2022/11/29 11:40:41;;;;;;;5.10;3.70;;;4.50;82.80;;;;;;5004678;28;20033;-57
2022/11/29 11:43:18;;;;;;;5.70;4.03;;;4.50;82.80;;;;;;4999473;28;20049;-57
2022/11/29 11:45:51;;;;;;;5.57;4.40;;;4.50;82.10;;;;;;5012250;28;20033;-57
2022/11/29 11:48:18;;;;;;;7.40;4.28;;;4.50;82.00;;;;;;4997616;28;20071;-56
2022/11/29 11:50:49;;;;;;;6.25;4.15;;;4.50;81.90;;;;;;5007344;28;20144;-57
2022/11/29 11:53:29;;;;;;;4.75;3.75;;;4.50;82.20;;;;;;5003781;28;20052;-57
2022/11/29 11:55:59;;;;;;;5.50;3.80;;;4.60;82.10;;;;;;5004805;28;20032;-59
2022/11/29 11:58:35;;;;;;;5.40;4.05;;;4.50;81.90;;;;;;4995141;28;20152;-57
2022/11/29 12:01:36;;;;;;;5.30;3.40;;;4.50;81.80;;;;;;4986089;28;20068;-58
2022/11/29 12:04:16;;;;;;;4.80;3.85;;;4.50;81.60;;;;;;4997723;28;20123;-56
2022/11/29 12:06:51;;;;;;;4.70;3.60;;;4.50;81.50;;;;;;5003162;28;20668;-58
2022/11/29 12:09:34;;;;;;;4.32;3.30;;;4.50;81.50;;;;;;4999923;28;20029;-57
2022/11/29 12:12:11;;;;;;;5.05;3.47;;;4.50;81.50;;;;;;5000685;28;20038;-58
2022/11/29 12:15:04;;;;;;;4.47;3.50;;;4.50;81.50;;;;;;5005402;28;20053;-58
2022/11/29 12:17:54;;;;;;;4.40;3.42;;;4.50;81.40;;;;;;4996270;28;20067;-58
2022/11/29 12:20:20;;;;;;;4.78;3.80;;;4.50;81.30;;;;;;4998033;28;20125;-55
2022/11/29 12:23:10;;;;;;;5.03;4.00;;;4.50;81.30;;;;;;5010156;28;20413;-58
2022/11/29 12:26:20;;;;;;;4.97;3.60;;;4.50;81.10;;;;;;5007308;28;20045;-57
2022/11/29 12:28:46;;;;;;;3.97;3.30;;;4.50;80.90;;;;;;4992329;28;20041;-58
2022/11/29 12:31:37;;;;;;;4.53;3.28;;;4.60;81.00;;;;;;5005800;28;20025;-56
2022/11/29 12:34:24;;;;;;;4.13;3.58;;;4.60;80.90;;;;;;5004676;28;21429;-57
2022/11/29 12:37:28;;;;;;;5.20;3.53;;;4.60;80.90;;;;;;5006452;28;20046;-56
2022/11/29 12:40:26;;;;;;;3.85;3.38;;;4.60;80.90;;;;;;4999543;28;20038;-58
2022/11/29 12:43:13;;;;;;;4.38;3.47;;;4.60;80.60;;;;;;5006862;28;20045;-56
2022/11/29 12:45:48;;;;;;;6.22;3.72;;;4.60;80.80;;;;;;5005394;28;20039;-57
2022/11/29 12:48:44;;;;;;;5.50;3.28;;;4.60;80.50;;;;;;5003216;28;20029;-58
2022/11/29 12:51:26;;;;;;;6.10;4.70;;;4.60;80.50;;;;;;5000201;28;20108;-56
2022/11/29 12:54:22;;;;;;;6.13;4.05;;;4.60;80.50;;;;;;5001744;28;20083;-56
2022/11/29 12:57:14;;;;;;;5.60;3.80;;;4.60;80.50;;;;;;5007502;28;20044;-58
2022/11/29 12:59:42;;;;;;;;;;;4.60;80.30;;;;;;5012261;28;20124;-55
2022/11/29 13:02:33;;;;;;;4.90;3.65;;;4.50;79.90;;;;;;5003607;28;19924;-58
2022/11/29 13:05:08;;;;;;;4.63;3.55;;;4.60;80.30;;;;;;5010629;28;20048;-56
2022/11/29 13:07:53;;;;;;;4.25;3.33;;;4.60;80.40;;;;;;4999116;28;20026;-58
2022/11/29 13:10:31;;;;;;;5.25;3.60;;;4.50;80.40;;;;;;5015019;28;20115;-57
2022/11/29 13:13:40;;;;;;;5.47;3.65;;;4.50;80.30;;;;;;5002332;28;20049;-59
2022/11/29 13:16:30;;;;;;;4.97;3.85;;;4.50;80.10;;;;;;5009709;28;20112;-56
2022/11/29 13:19:40;;;;;;;4.68;3.80;;;4.50;80.30;;;;;;5004428;28;20040;-58
2022/11/29 13:22:20;;;;;;;5.03;4.20;;;4.50;80.10;;;;;;5002814;28;20046;-57
2022/11/29 13:25:25;;;;;;;6.40;4.30;;;4.50;80.20;;;;;;5008155;28;20045;-57
2022/11/29 13:28:00;;;;;;;5.82;4.20;;;4.50;80.20;;;;;;4996436;28;20038;-57
2022/11/29 13:30:26;;;;;;;6.85;4.57;;;4.40;79.80;;;;;;5008718;28;20485;-56
2022/11/29 13:33:38;;;;;;;6.55;4.45;;;4.40;80.10;;;;;;5000290;28;20025;-58
2022/11/29 13:36:14;;;;;;;;;;;4.30;79.80;;;;;;4997238;28;20501;-56
2022/11/29 13:39:15;;;;;;;4.35;3.58;;;4.30;80.20;;;;;;5001711;28;19917;-57
2022/11/29 13:42:03;;;;;;;5.20;4.25;;;4.20;80.50;;;;;;5012737;28;21068;-55
2022/11/29 13:44:57;;;;;;;6.93;4.78;;;4.30;80.50;;;;;;5001336;28;20537;-58
2022/11/29 13:47:23;;;;;;;7.07;4.38;;;4.20;80.60;;;;;;5002056;28;20699;-55
2022/11/29 13:50:03;;;;;;;6.82;5.00;;;4.20;80.80;;;;;;5007487;28;20983;-57
2022/11/29 13:52:34;;;;;;;6.68;4.07;;;4.20;80.90;;;;;;5006987;28;20136;-55
2022/11/29 13:55:11;;;;;;;7.15;4.80;;;4.30;80.90;;;;;;4997412;28;20025;-55
2022/11/29 13:57:50;;;;;;;5.95;4.10;;;4.30;80.60;;;;;;5009282;28;20034;-57
2022/11/29 14:00:32;;;;;;;6.03;4.43;;;4.30;80.40;;;;;;4994366;28;21900;-56
2022/11/29 14:03:17;;;;;;;;;;;4.30;80.30;;;;;;4997168;28;20041;-57
2022/11/29 14:05:47;;;;;;;6.65;4.30;;;4.20;80.00;;;;;;5022140;28;19913;-57